Time;durP1;ratioP1;P1;durP2;ratioP2;P2;SDS_P1;SDS_P2;PMS_P1;PMS_P2;Temp;Humidity;BMP_temperature;BMP_pressure;BME280_temperature;BME280_humidity;BME280_pressure;Samples;Min_cycle;Max_cycle;Signal;HPM_P1;HPM_P2
2022/06/20 00:00:17;;;;;;;14.60;4.20;;;;;;;25.59;47.61;99730.72;4145570;28;20281;-70
2022/06/20 00:02:23;;;;;;;12.02;4.88;;;;;;;25.58;47.63;99724.56;4127730;28;20069;-70
2022/06/20 00:04:26;;;;;;;13.00;4.32;;;;;;;25.59;47.53;99720.09;4125790;28;20655;-70
2022/06/20 00:06:29;;;;;;;17.73;5.18;;;;;;;25.54;47.70;99728.34;4131895;28;20069;-69
2022/06/20 00:08:32;;;;;;;12.27;4.60;;;;;;;25.59;47.67;99723.59;4130830;28;20034;-70
2022/06/20 00:10:40;;;;;;;14.30;5.35;;;;;;;25.58;47.52;99718.38;4130696;28;20464;-70
2022/06/20 00:12:44;;;;;;;11.60;3.90;;;;;;;25.56;47.59;99726.44;4128885;28;20065;-70
2022/06/20 00:14:49;;;;;;;12.65;4.90;;;;;;;25.71;47.29;99729.13;4129413;28;20541;-70
2022/06/20 00:16:52;;;;;;;14.93;4.70;;;;;;;25.64;47.38;99725.13;4129370;28;20048;-70
2022/06/20 00:18:55;;;;;;;21.15;5.20;;;;;;;25.62;47.15;99725.22;4129600;28;20478;-69
2022/06/20 00:20:58;;;;;;;12.35;4.55;;;;;;;25.53;47.42;99723.13;4129371;28;20046;-69
2022/06/20 00:23:01;;;;;;;17.00;4.70;;;;;;;25.51;47.62;99725.00;4129230;28;20409;-70
2022/06/20 00:25:05;;;;;;;13.68;4.40;;;;;;;25.41;47.75;99716.72;4129117;28;20381;-70
2022/06/20 00:27:10;;;;;;;11.43;4.38;;;;;;;25.51;47.50;99717.03;4128547;28;20454;-70
2022/06/20 00:29:13;;;;;;;11.52;4.50;;;;;;;25.53;47.36;99710.66;4130162;28;20050;-70
2022/06/20 00:31:16;;;;;;;10.73;3.97;;;;;;;25.47;47.30;99720.84;4125922;28;20070;-70
2022/06/20 00:33:19;;;;;;;15.70;4.50;;;;;;;25.54;47.04;99728.34;4133751;28;20034;-70
2022/06/20 00:35:23;;;;;;;14.45;4.53;;;;;;;25.51;46.81;99719.69;4133595;28;20800;-70
2022/06/20 00:37:25;;;;;;;12.07;4.25;;;;;;;25.32;47.49;99717.25;4134032;28;20132;-70
2022/06/20 00:39:29;;;;;;;14.20;4.68;;;;;;;25.27;47.84;99722.81;4133415;28;20498;-70
2022/06/20 00:41:34;;;;;;;13.20;3.90;;;;;;;25.22;47.80;99706.28;4133906;28;20054;-69
2022/06/20 00:43:42;;;;;;;12.57;4.13;;;;;;;25.37;47.02;99694.75;4114055;28;20047;-70
2022/06/20 00:45:48;;;;;;;10.55;4.10;;;;;;;25.32;47.40;99685.34;4129295;28;20452;-69
2022/06/20 00:47:53;;;;;;;13.05;4.55;;;;;;;25.33;47.33;99674.59;4133186;28;20522;-69
2022/06/20 00:50:01;;;;;;;15.27;4.57;;;;;;;25.28;47.43;99676.66;4131890;28;20049;-69
2022/06/20 00:52:13;;;;;;;15.73;4.75;;;;;;;25.23;47.54;99681.38;4132919;28;20081;-69
2022/06/20 00:54:24;;;;;;;12.63;4.30;;;;;;;25.23;47.42;99684.03;4125486;28;20046;-69
2022/06/20 00:56:34;;;;;;;11.18;4.45;;;;;;;25.14;47.46;99681.94;4131071;28;20081;-69
2022/06/20 00:58:43;;;;;;;10.20;4.25;;;;;;;25.06;47.87;99683.25;4134222;28;20038;-69
2022/06/20 01:00:46;;;;;;;10.10;4.35;;;;;;;24.99;47.75;99697.84;4133315;28;20043;-69
2022/06/20 01:02:52;;;;;;;14.80;5.15;;;;;;;25.05;47.58;99715.25;4131157;28;20084;-69
2022/06/20 01:05:00;;;;;;;8.95;3.17;;;;;;;24.87;47.94;99723.34;4132177;28;20482;-69
2022/06/20 01:07:07;;;;;;;10.38;3.80;;;;;;;24.91;47.97;99718.69;4132772;28;20158;-69
2022/06/20 01:09:11;;;;;;;10.88;3.67;;;;;;;24.89;47.99;99726.75;4132670;28;20556;-69
2022/06/20 01:11:17;;;;;;;12.95;3.85;;;;;;;24.90;47.72;99719.66;4130964;28;20057;-69
2022/06/20 01:13:23;;;;;;;16.23;4.63;;;;;;;25.04;47.43;99716.19;4130703;28;20128;-69
2022/06/20 01:15:36;;;;;;;17.13;4.70;;;;;;;24.97;47.45;99726.34;4125600;28;20050;-69
2022/06/20 01:17:41;;;;;;;12.35;4.18;;;;;;;24.91;47.78;99729.31;4132887;28;20069;-69
2022/06/20 01:19:49;;;;;;;9.20;3.88;;;;;;;24.92;47.63;99736.38;4132496;28;20489;-70
2022/06/20 01:21:52;;;;;;;10.75;4.30;;;;;;;24.88;47.72;99729.50;4131611;28;20117;-69
2022/06/20 01:24:06;;;;;;;13.73;4.30;;;;;;;24.82;47.90;99735.19;4133662;28;20042;-69
2022/06/20 01:26:19;;;;;;;12.73;4.70;;;;;;;24.72;47.90;99746.34;4132813;28;20066;-69
2022/06/20 01:28:28;;;;;;;12.50;3.42;;;;;;;24.66;48.29;99756.44;4137094;28;20088;-69
2022/06/20 01:30:35;;;;;;;10.75;3.63;;;;;;;24.66;47.88;99777.72;4131543;28;20616;-69
2022/06/20 01:32:39;;;;;;;17.02;4.50;;;;;;;24.68;47.98;99771.38;4129044;28;20066;-69
2022/06/20 01:34:43;;;;;;;11.48;4.47;;;;;;;24.72;47.96;99772.91;4132840;28;20485;-69
2022/06/20 01:39:29;;;;;;;11.23;4.40;;;;;;;24.70;47.40;99789.88;4132790;28;20057;-69
2022/06/20 01:43:56;;;;;;;13.05;4.30;;;;;;;24.50;47.75;99804.22;4132054;28;20061;-69
2022/06/20 01:46:01;;;;;;;11.95;3.95;;;;;;;24.33;47.91;99810.47;4132384;28;20413;-69
2022/06/20 01:48:07;;;;;;;11.15;3.70;;;;;;;24.18;48.39;99809.47;4132639;28;20045;-70
2022/06/20 01:50:10;;;;;;;11.25;4.35;;;;;;;24.43;47.98;99824.09;4131248;28;20133;-70
2022/06/20 01:52:18;;;;;;;10.75;4.13;;;;;;;24.20;48.46;99834.16;4130956;28;20057;-70
2022/06/20 01:54:23;;;;;;;11.70;3.88;;;;;;;24.13;48.67;99876.09;4133326;28;20437;-69
2022/06/20 01:56:28;;;;;;;8.50;3.05;;;;;;;24.04;48.61;99901.34;4130358;28;20073;-70
2022/06/20 01:58:36;;;;;;;13.10;4.15;;;;;;;24.20;48.00;99909.38;4132275;28;20117;-71
2022/06/20 02:01:01;;;;;;;10.88;3.80;;;;;;;24.03;48.58;99874.88;4132008;28;20421;-69
2022/06/20 02:03:08;;;;;;;8.93;4.10;;;;;;;24.04;48.36;99888.06;4131534;28;20050;-69
2022/06/20 02:05:17;;;;;;;14.40;4.32;;;;;;;24.02;48.50;99900.56;4132606;28;20100;-69
2022/06/20 02:07:20;;;;;;;21.25;5.05;;;;;;;24.02;47.68;99911.19;4146485;28;20048;-69
2022/06/20 02:09:24;;;;;;;13.93;5.10;;;;;;;23.93;48.53;99903.66;4146169;28;20140;-69
2022/06/20 02:11:31;;;;;;;13.40;4.95;;;;;;;23.91;48.73;99902.91;4131870;28;20057;-69
2022/06/20 02:13:39;;;;;;;14.38;4.75;;;;;;;23.76;49.72;99911.59;4131801;28;20481;-74
2022/06/20 02:15:44;;;;;;;15.10;5.05;;;;;;;23.64;49.91;99915.69;4132825;28;20489;-70
2022/06/20 02:17:51;;;;;;;9.68;4.38;;;;;;;23.55;50.39;99938.22;4131948;28;20034;-69
2022/06/20 02:19:56;;;;;;;18.33;4.78;;;;;;;23.77;48.93;99939.84;4131807;28;20074;-69
2022/06/20 02:22:01;;;;;;;14.70;5.05;;;;;;;23.44;49.87;99930.81;4132436;28;20130;-70
2022/06/20 02:24:08;;;;;;;17.25;3.95;;;;;;;23.26;49.99;99924.59;4131837;28;20070;-70
2022/06/20 02:26:12;;;;;;;20.50;4.22;;;;;;;23.31;49.69;99938.47;4132756;28;20050;-70
2022/06/20 02:28:21;;;;;;;16.25;4.15;;;;;;;23.25;49.43;99940.56;4131404;28;20038;-69
2022/06/20 02:30:24;;;;;;;16.35;5.03;;;;;;;23.27;49.08;99955.47;4128549;28;20053;-68
2022/06/20 02:32:30;;;;;;;15.63;4.15;;;;;;;23.08;50.19;99942.16;4131261;28;20050;-69
2022/06/20 02:34:35;;;;;;;14.93;4.15;;;;;;;23.07;50.00;99931.63;4131575;28;20049;-69
2022/06/20 02:36:38;;;;;;;17.02;5.25;;;;;;;22.96;50.53;99911.78;4115107;28;20046;-69
2022/06/20 02:38:42;;;;;;;15.50;4.38;;;;;;;22.88;50.84;99926.31;4133098;28;20037;-72
2022/06/20 02:40:45;;;;;;;17.63;4.10;;;;;;;22.79;50.64;99923.19;4135990;28;20121;-70
2022/06/20 02:42:52;;;;;;;13.10;3.28;;;;;;;22.57;51.01;99917.09;4113996;28;20526;-69
2022/06/20 02:44:56;;;;;;;15.55;4.35;;;;;;;22.66;50.77;99906.06;4131571;28;20038;-70
2022/06/20 02:47:04;;;;;;;20.45;3.95;;;;;;;22.61;50.43;99913.38;4131705;28;20034;-69
2022/06/20 02:49:09;;;;;;;13.45;3.75;;;;;;;22.49;50.94;99893.59;4129467;28;20062;-69
2022/06/20 02:51:20;;;;;;;14.02;4.43;;;;;;;22.38;51.20;99915.25;4131801;28;20062;-71
2022/06/20 02:53:29;;;;;;;11.95;3.63;;;;;;;22.26;51.41;99921.91;4124010;28;20382;-69
2022/06/20 02:55:35;;;;;;;19.10;5.07;;;;;;;22.13;52.02;99923.34;4131378;28;20045;-70
2022/06/20 02:57:43;;;;;;;10.90;3.67;;;;;;;22.08;51.76;99906.81;4131253;28;20061;-69
2022/06/20 02:59:50;;;;;;;16.08;4.07;;;;;;;22.13;51.69;99902.19;4127950;28;20129;-69
2022/06/20 03:02:01;;;;;;;17.10;4.03;;;;;;;22.13;51.84;99886.28;4130382;28;20457;-69
2022/06/20 03:04:07;;;;;;;14.18;4.18;;;;;;;22.00;52.12;99882.47;4131478;28;20070;-69
2022/06/20 03:06:15;;;;;;;11.45;3.58;;;;;;;21.93;52.36;99889.78;4128531;28;20069;-69
2022/06/20 03:08:19;;;;;;;15.55;4.38;;;;;;;22.04;52.20;99865.53;4118211;28;20043;-67
2022/06/20 03:10:24;;;;;;;;;;;;;;;22.03;52.62;99864.66;4131802;28;20129;-67
2022/06/20 03:12:27;;;;;;;18.42;4.65;;;;;;;22.16;52.14;99859.69;4122558;28;19921;-68
2022/06/20 03:14:36;;;;;;;12.88;4.22;;;;;;;22.05;52.25;99861.94;4131258;28;20042;-68
2022/06/20 03:16:40;;;;;;;10.32;4.40;;;;;;;22.17;52.07;99861.41;4130890;28;20035;-67
2022/06/20 03:18:49;;;;;;;14.10;4.22;;;;;;;22.10;52.14;99860.81;4132699;28;20453;-68
2022/06/20 03:20:52;;;;;;;9.40;3.28;;;;;;;22.14;52.09;99872.16;4113327;28;20057;-69
2022/06/20 03:23:02;;;;;;;13.52;3.63;;;;;;;22.17;51.62;99882.59;4130696;28;20404;-68
2022/06/20 03:25:10;;;;;;;12.80;4.05;;;;;;;22.17;51.49;99895.84;4129996;28;20058;-68
2022/06/20 03:27:17;;;;;;;14.43;2.90;;;;;;;22.17;51.63;99913.53;4131049;28;20037;-68
2022/06/20 03:29:21;;;;;;;9.30;3.70;;;;;;;22.30;51.04;99920.00;4131060;28;20393;-68
2022/06/20 03:31:24;;;;;;;11.32;3.10;;;;;;;22.20;51.02;99926.63;4130162;28;20400;-68
2022/06/20 03:33:27;;;;;;;17.65;4.35;;;;;;;22.18;51.25;99942.56;4130697;28;20045;-68
2022/06/20 03:35:31;;;;;;;20.48;4.93;;;;;;;22.20;51.27;99930.13;4128347;28;20042;-68
2022/06/20 03:37:36;;;;;;;9.40;3.08;;;;;;;22.19;51.13;99932.84;4129035;28;20129;-68
2022/06/20 03:39:39;;;;;;;10.70;3.67;;;;;;;22.21;51.22;99920.38;4129636;28;20065;-68
2022/06/20 03:41:44;;;;;;;14.95;4.28;;;;;;;22.37;50.45;99924.13;4126813;28;20038;-68
2022/06/20 03:43:51;;;;;;;12.50;3.25;;;;;;;22.36;50.06;99908.31;4130745;28;20416;-70
2022/06/20 03:45:59;;;;;;;11.00;3.33;;;;;;;22.31;50.34;99901.41;4130561;28;20085;-69
2022/06/20 03:48:06;;;;;;;14.85;3.15;;;;;;;22.37;49.96;99896.78;4123479;28;20046;-68
2022/06/20 03:50:13;;;;;;;10.75;3.17;;;;;;;22.22;50.27;99890.34;4129136;28;20130;-69
2022/06/20 03:52:21;;;;;;;13.30;3.75;;;;;;;22.27;50.20;99894.50;4127043;28;20408;-69
2022/06/20 03:54:28;;;;;;;7.13;3.05;;;;;;;22.39;49.68;99881.69;4129771;28;20420;-69
2022/06/20 03:56:37;;;;;;;9.13;3.20;;;;;;;22.23;50.43;99890.28;4129800;28;20042;-69
2022/06/20 03:58:48;;;;;;;12.68;3.80;;;;;;;22.31;50.13;99880.22;4125738;28;20064;-70
2022/06/20 04:00:55;;;;;;;9.98;3.00;;;;;;;22.35;49.93;99882.75;4130679;28;20515;-69
2022/06/20 04:03:04;;;;;;;8.50;3.38;;;;;;;22.55;49.07;99892.47;4129354;28;20050;-69
2022/06/20 04:05:13;;;;;;;9.40;2.63;;;;;;;22.47;49.11;99890.16;4132159;28;20505;-68
2022/06/20 04:07:21;;;;;;;8.40;3.30;;;;;;;22.36;49.86;99903.03;4125802;28;20482;-68
2022/06/20 04:11:59;;;;;;;5.70;2.28;;;;;;;22.47;49.38;99876.91;4126873;28;20133;-68
2022/06/20 04:14:08;;;;;;;8.93;2.38;;;;;;;22.34;49.91;99888.97;4130607;28;20046;-68
2022/06/20 04:16:17;;;;;;;9.02;2.80;;;;;;;22.35;50.22;99902.13;4130022;28;20042;-68
2022/06/20 04:18:29;;;;;;;7.45;2.65;;;;;;;22.56;50.04;99894.19;4128865;28;20042;-69
2022/06/20 04:20:42;;;;;;;10.90;3.97;;;;;;;22.90;49.44;99888.22;4130337;28;20053;-68
2022/06/20 04:22:47;;;;;;;8.55;2.90;;;;;;;23.20;47.62;99876.28;4126092;28;20401;-68
2022/06/20 04:24:56;;;;;;;8.73;2.60;;;;;;;23.02;47.47;99884.13;4130755;28;20048;-68
2022/06/20 04:27:02;;;;;;;7.43;2.78;;;;;;;22.80;48.19;99889.56;4129768;28;20046;-68
2022/06/20 04:29:14;;;;;;;12.63;3.00;;;;;;;22.76;47.48;99886.19;4129917;28;20046;-67
2022/06/20 04:31:22;;;;;;;9.15;2.80;;;;;;;22.56;48.65;99884.47;4131355;28;20125;-68
2022/06/20 04:33:32;;;;;;;10.70;3.40;;;;;;;22.74;48.10;99881.91;4128912;28;20049;-68
2022/06/20 04:35:39;;;;;;;15.80;3.60;;;;;;;22.70;47.66;99882.97;4129981;28;20057;-68
2022/06/20 04:37:48;;;;;;;10.77;3.83;;;;;;;22.55;48.18;99893.31;4145933;28;20057;-68
2022/06/20 04:39:56;;;;;;;7.00;2.38;;;;;;;22.49;48.51;99906.84;4129383;28;20520;-63
2022/06/20 04:42:03;;;;;;;6.90;2.80;;;;;;;22.54;48.25;99912.78;4128147;28;20042;-66
2022/06/20 04:44:18;;;;;;;7.32;2.97;;;;;;;22.56;48.47;99910.06;4128520;28;20061;-66
2022/06/20 04:46:25;;;;;;;;;;;;;;;22.60;48.48;99912.50;4124353;28;20039;-66
2022/06/20 04:48:29;;;;;;;9.25;3.00;;;;;;;22.61;48.04;99913.38;4131282;28;19968;-66
2022/06/20 04:50:34;;;;;;;6.38;2.35;;;;;;;22.59;48.00;99912.56;4131168;28;20080;-66
2022/06/20 04:52:37;;;;;;;6.88;1.90;;;;;;;22.47;48.53;99928.09;4130034;28;20117;-66
2022/06/20 04:54:40;;;;;;;7.20;2.25;;;;;;;22.49;49.27;99936.84;4129205;28;20555;-66
2022/06/20 04:56:45;;;;;;;7.95;2.63;;;;;;;22.63;49.34;99925.66;4130788;28;20065;-66
2022/06/20 04:58:53;;;;;;;8.27;2.70;;;;;;;22.80;48.20;99918.72;4130186;28;20053;-66
2022/06/20 05:00:58;;;;;;;9.27;2.58;;;;;;;22.75;48.07;99910.09;4131216;28;20073;-66
2022/06/20 05:03:01;;;;;;;7.60;2.92;;;;;;;22.71;48.50;99913.84;4128666;28;20137;-66
2022/06/20 05:05:05;;;;;;;5.60;2.13;;;;;;;22.55;49.25;99919.81;4136820;28;20046;-66
2022/06/20 05:07:14;;;;;;;7.53;2.85;;;;;;;22.56;49.50;99921.53;4131075;28;20046;-67
2022/06/20 05:09:23;;;;;;;10.15;3.03;;;;;;;22.76;49.21;99911.84;4131117;28;20035;-66
2022/06/20 05:11:31;;;;;;;8.25;2.80;;;;;;;22.92;48.00;99899.59;4131146;28;20057;-67
2022/06/20 05:13:38;;;;;;;11.40;2.67;;;;;;;22.67;48.63;99913.97;4129872;28;20126;-67
2022/06/20 05:15:43;;;;;;;8.65;2.30;;;;;;;22.46;49.57;99929.03;4119583;28;20129;-67
2022/06/20 05:17:49;;;;;;;9.45;3.22;;;;;;;22.74;49.27;99927.81;4117775;28;20506;-66
2022/06/20 05:19:56;;;;;;;11.13;3.15;;;;;;;22.61;49.79;99937.22;4117920;28;20130;-67
2022/06/20 05:22:02;;;;;;;10.63;3.00;;;;;;;22.44;50.65;99961.81;4119158;28;20134;-67
2022/06/20 05:24:11;;;;;;;17.25;2.55;;;;;;;22.42;51.05;99977.75;4133997;28;20062;-67
2022/06/20 05:26:17;;;;;;;9.95;3.33;;;;;;;22.34;51.73;99984.31;4116797;28;20053;-67
2022/06/20 05:28:24;;;;;;;12.35;3.17;;;;;;;22.47;51.84;99990.81;4117741;28;20043;-67
2022/06/20 05:30:31;;;;;;;14.73;3.67;;;;;;;22.69;51.15;99995.19;4119642;28;20035;-66
2022/06/20 05:32:39;;;;;;;10.50;3.90;;;;;;;22.67;51.03;100006.69;4132056;28;20456;-66
2022/06/20 05:34:50;;;;;;;17.23;3.50;;;;;;;22.51;51.08;100018.88;4133756;28;20133;-67
2022/06/20 05:36:58;;;;;;;15.57;3.88;;;;;;;22.66;50.99;100020.91;4132401;28;20049;-66
2022/06/20 05:39:07;;;;;;;12.88;3.47;;;;;;;22.64;50.66;100024.53;4132477;28;20043;-66
2022/06/20 05:41:14;;;;;;;10.43;3.50;;;;;;;22.71;50.56;100027.78;4133082;28;20042;-66
2022/06/20 05:43:19;;;;;;;12.70;3.88;;;;;;;22.58;50.97;100035.41;4107947;28;20050;-67
2022/06/20 05:45:25;;;;;;;11.77;3.70;;;;;;;22.52;51.08;100039.16;4132373;28;20054;-66
2022/06/20 05:47:30;;;;;;;11.90;3.50;;;;;;;22.69;50.61;100037.56;4133561;28;20125;-67
2022/06/20 05:49:40;;;;;;;10.23;3.83;;;;;;;22.58;50.73;100033.59;4133437;28;20047;-67
2022/06/20 05:51:46;;;;;;;9.02;2.88;;;;;;;22.53;51.10;100034.72;4130845;28;20045;-67
2022/06/20 05:53:53;;;;;;;9.07;2.97;;;;;;;22.50;51.05;100043.66;4116161;28;20450;-67
2022/06/20 05:55:59;;;;;;;15.68;3.08;;;;;;;22.42;50.81;100043.97;4117279;28;20122;-67
2022/06/20 05:58:15;;;;;;;12.77;2.92;;;;;;;22.43;51.07;100042.22;4132315;28;20057;-67
2022/06/20 06:00:20;;;;;;;11.18;4.15;;;;;;;22.59;50.50;100031.81;4116004;28;20134;-66
2022/06/20 06:02:28;;;;;;;10.32;3.17;;;;;;;22.67;50.37;100029.69;4137343;28;20042;-67
2022/06/20 06:04:37;;;;;;;13.07;3.17;;;;;;;22.63;50.60;100044.88;4132054;28;20046;-67
2022/06/20 06:06:43;;;;;;;7.95;2.72;;;;;;;22.61;50.62;100059.97;4148128;28;20048;-67
2022/06/20 06:08:52;;;;;;;16.17;4.05;;;;;;;22.66;50.78;100079.19;4133291;28;20034;-67
2022/06/20 06:11:02;;;;;;;10.90;3.42;;;;;;;22.91;49.97;100086.09;4133147;28;20042;-66
2022/06/20 06:13:25;;;;;;;14.63;3.13;;;;;;;22.84;49.50;100080.19;4131442;28;20050;-66
2022/06/20 06:15:37;;;;;;;10.98;3.38;;;;;;;22.78;49.71;100079.56;4132262;28;20100;-67
2022/06/20 06:17:44;;;;;;;12.15;3.75;;;;;;;22.92;49.43;100098.41;4132881;28;20045;-67
2022/06/20 06:19:54;;;;;;;8.13;2.72;;;;;;;22.79;49.97;100084.84;4133021;28;20133;-67
2022/06/20 06:22:00;;;;;;;14.50;3.85;;;;;;;22.90;49.51;100084.38;4132902;28;20593;-66
2022/06/20 06:24:12;;;;;;;10.70;3.30;;;;;;;22.96;48.95;100072.63;4115646;28;20070;-66
2022/06/20 06:26:17;;;;;;;10.95;3.58;;;;;;;22.98;48.86;100076.94;4130989;28;20132;-67
2022/06/20 06:28:25;;;;;;;11.27;3.35;;;;;;;22.98;48.98;100071.66;4131465;28;20047;-66
2022/06/20 06:30:30;;;;;;;14.70;3.65;;;;;;;23.01;49.15;100066.22;4131721;28;20048;-67
2022/06/20 06:32:40;;;;;;;11.38;4.15;;;;;;;22.94;49.94;100063.88;4132753;28;20452;-67
2022/06/20 06:34:50;;;;;;;11.82;3.75;;;;;;;22.92;49.77;100071.03;4136935;28;20454;-67
2022/06/20 06:36:58;;;;;;;18.25;3.45;;;;;;;22.86;49.74;100071.31;4134414;28;20125;-66
2022/06/20 06:39:07;;;;;;;10.05;3.95;;;;;;;22.70;50.02;100063.16;4132704;28;20129;-67
2022/06/20 06:41:19;;;;;;;6.68;3.03;;;;;;;22.59;49.78;100075.06;4132664;28;20042;-67
2022/06/20 06:43:27;;;;;;;14.35;3.95;;;;;;;22.47;50.48;100079.09;4131413;28;20583;-67
2022/06/20 06:45:33;;;;;;;10.95;3.70;;;;;;;22.46;50.74;100089.75;4131144;28;20078;-67
2022/06/20 06:47:41;;;;;;;13.40;3.95;;;;;;;22.51;50.46;100087.75;4132476;28;20046;-67
2022/06/20 06:49:47;;;;;;;8.55;3.05;;;;;;;22.33;51.11;100080.56;4147398;28;20096;-67
2022/06/20 06:51:59;;;;;;;16.50;3.10;;;;;;;22.47;50.87;100091.47;4132329;28;20618;-67
2022/06/20 06:54:10;;;;;;;11.77;3.47;;;;;;;22.47;51.05;100107.34;4131721;28;20469;-67
2022/06/20 06:56:19;;;;;;;13.73;3.90;;;;;;;22.42;51.50;100110.19;4132299;28;20052;-67
2022/06/20 06:58:30;;;;;;;12.25;3.03;;;;;;;22.50;51.83;100115.16;4118100;28;20121;-67
2022/06/20 07:00:38;;;;;;;8.85;2.65;;;;;;;22.61;51.81;100125.34;4131742;28;20042;-67
2022/06/20 07:02:45;;;;;;;14.90;4.10;;;;;;;23.12;50.54;100120.59;4136506;28;20041;-67
2022/06/20 07:04:54;;;;;;;9.82;2.92;;;;;;;22.98;50.84;100114.06;4119698;28;20043;-67
2022/06/20 07:07:02;;;;;;;8.90;2.92;;;;;;;23.00;50.99;100106.91;4116207;28;20049;-67
2022/06/20 07:09:13;;;;;;;8.93;2.55;;;;;;;22.98;51.69;100098.16;4116219;28;20062;-67
2022/06/20 07:11:21;;;;;;;11.10;3.67;;;;;;;23.18;50.92;100093.81;4126508;28;20045;-67
2022/06/20 07:13:33;;;;;;;21.33;3.85;;;;;;;23.49;49.87;100084.47;4131786;28;20125;-67
2022/06/20 07:15:37;;;;;;;17.25;5.03;;;;;;;23.54;49.72;100095.75;4114812;28;20074;-67
2022/06/20 07:17:43;;;;;;;9.23;3.80;;;;;;;23.52;49.66;100097.59;4132101;28;20046;-66
2022/06/20 07:19:49;;;;;;;16.40;4.43;;;;;;;23.33;49.95;100085.19;4132046;28;20048;-67
2022/06/20 07:21:53;;;;;;;13.98;4.13;;;;;;;23.40;49.31;100063.66;4129916;28;20239;-67
2022/06/20 07:23:59;;;;;;;11.63;3.78;;;;;;;23.42;49.99;100029.97;4146859;28;20049;-67
2022/06/20 07:26:02;;;;;;;14.15;3.83;;;;;;;23.58;50.28;100033.63;4132258;28;20097;-67
2022/06/20 07:28:14;;;;;;;11.45;4.05;;;;;;;23.60;48.55;100058.31;4123949;28;20070;-67
2022/06/20 07:30:21;;;;;;;11.07;3.67;;;;;;;23.41;49.26;100052.09;4116092;28;20043;-68
2022/06/20 07:32:33;;;;;;;13.02;3.08;;;;;;;23.36;49.90;100049.66;4136816;28;20053;-68
2022/06/20 07:34:41;;;;;;;13.93;3.55;;;;;;;23.26;50.46;100078.41;4121189;28;20051;-67
2022/06/20 07:36:48;;;;;;;5.65;2.72;;;;;;;23.08;50.37;100109.22;4115779;28;20042;-68
2022/06/20 07:38:55;;;;;;;15.80;3.80;;;;;;;23.16;50.48;100123.03;4115193;28;20403;-67
2022/06/20 07:41:02;;;;;;;7.78;3.35;;;;;;;23.11;50.80;100138.28;4121724;28;20528;-68
2022/06/20 07:43:11;;;;;;;10.40;3.78;;;;;;;23.16;50.33;100138.09;4131416;28;20054;-68
2022/06/20 07:45:18;;;;;;;7.07;3.05;;;;;;;23.12;51.01;100125.91;4127094;28;20045;-67
2022/06/20 07:47:25;;;;;;;9.75;3.38;;;;;;;23.11;51.98;100116.22;4123203;28;20093;-68
2022/06/20 07:49:32;;;;;;;10.07;3.53;;;;;;;23.35;51.02;100090.41;4131733;28;20459;-67
2022/06/20 07:51:39;;;;;;;10.63;3.95;;;;;;;23.17;50.45;100108.88;4131513;28;20040;-67
2022/06/20 07:53:46;;;;;;;7.05;2.60;;;;;;;23.02;51.41;100120.94;4131665;28;20422;-68
2022/06/20 07:55:52;;;;;;;9.55;3.08;;;;;;;23.02;52.91;100112.97;4130850;28;20101;-68
2022/06/20 07:57:59;;;;;;;12.00;3.60;;;;;;;23.08;52.94;100113.66;4131547;28;20121;-68
2022/06/20 08:00:09;;;;;;;9.45;3.90;;;;;;;23.12;53.31;100091.44;4131703;28;20050;-68
2022/06/20 08:02:18;;;;;;;14.48;4.75;;;;;;;23.37;52.30;100045.25;4128495;28;20054;-67
2022/06/20 08:04:27;;;;;;;8.88;3.25;;;;;;;23.05;53.52;100050.16;4131477;28;20041;-68
2022/06/20 08:06:36;;;;;;;24.45;4.07;;;;;;;23.00;55.20;100072.44;4130514;28;20501;-68
2022/06/20 08:08:46;;;;;;;15.02;4.25;;;;;;;22.99;56.10;100096.38;4120411;28;20047;-68
2022/06/20 08:10:54;;;;;;;15.15;3.97;;;;;;;22.93;56.49;100091.34;4115637;28;20414;-68
2022/06/20 08:13:02;;;;;;;13.40;4.20;;;;;;;22.92;57.28;100066.59;4097607;28;20122;-68
2022/06/20 08:15:11;;;;;;;13.10;3.97;;;;;;;22.95;56.93;100071.75;4127310;28;20048;-68
2022/06/20 08:17:15;;;;;;;11.23;3.78;;;;;;;22.98;57.58;100070.78;4123466;28;20126;-68
2022/06/20 08:19:18;;;;;;;11.93;3.33;;;;;;;23.00;58.06;100063.63;4115325;28;20035;-68
2022/06/20 08:21:24;;;;;;;14.57;3.88;;;;;;;23.14;56.21;100048.00;4114051;28;20341;-68
2022/06/20 08:23:33;;;;;;;11.88;3.33;;;;;;;23.08;56.14;100066.78;4125605;28;20038;-68
2022/06/20 08:25:40;;;;;;;6.28;2.53;;;;;;;23.05;56.61;100088.13;4120487;28;20105;-68
2022/06/20 08:27:45;;;;;;;9.07;3.08;;;;;;;23.06;57.41;100083.72;4114069;28;20055;-68
2022/06/20 08:29:55;;;;;;;8.35;3.35;;;;;;;23.02;57.55;100077.66;4114090;28;20049;-68
2022/06/20 08:32:08;;;;;;;8.57;3.38;;;;;;;23.06;57.03;100073.09;4114890;28;20057;-68
2022/06/20 08:34:17;;;;;;;9.90;3.97;;;;;;;23.01;57.92;100082.13;4136837;28;20046;-68
2022/06/20 08:36:23;;;;;;;7.70;3.30;;;;;;;23.00;58.27;100084.84;4123960;28;20049;-68
2022/06/20 08:38:33;;;;;;;14.10;4.07;;;;;;;22.99;58.20;100088.41;4131337;28;20045;-68
2022/06/20 08:41:05;;;;;;;10.07;3.10;;;;;;;22.97;58.29;100088.47;4130459;28;20050;-68
2022/06/20 08:43:42;;;;;;;10.00;3.50;;;;;;;22.97;58.62;100090.28;4129678;28;20129;-68
2022/06/20 08:46:14;;;;;;;8.73;3.65;;;;;;;22.96;58.09;100097.34;4115253;28;20047;-68
2022/06/20 08:48:51;;;;;;;9.32;3.65;;;;;;;23.07;56.93;100112.81;4125185;28;20093;-68
2022/06/20 08:51:33;;;;;;;8.95;3.60;;;;;;;23.23;56.04;100117.47;4120287;28;20052;-68
2022/06/20 08:54:18;;;;;;;12.27;4.38;;;;;;;23.25;57.24;100113.81;4137788;28;20055;-68
2022/06/20 08:56:38;;;;;;;9.48;3.88;;;;;;;23.29;55.88;100123.38;4064288;28;20155;-68
2022/06/20 08:58:58;;;;;;;18.45;5.78;;;;;;;23.22;54.82;100124.56;4118069;28;20066;-68
2022/06/20 09:01:07;;;;;;;15.43;5.43;;;;;;;23.25;54.55;100136.84;4126709;28;20566;-69
2022/06/20 09:03:35;;;;;;;13.48;4.90;;;;;;;23.37;54.47;100143.41;4132463;28;20049;-68
2022/06/20 09:05:54;;;;;;;15.05;4.78;;;;;;;23.42;54.85;100136.97;4133232;28;20190;-68
2022/06/20 09:08:12;;;;;;;14.73;4.20;;;;;;;23.55;54.94;100139.91;4134241;28;20062;-68
2022/06/20 09:10:33;;;;;;;9.63;3.92;;;;;;;23.66;54.19;100132.31;4133134;28;20042;-68
2022/06/20 09:13:05;;;;;;;13.27;4.20;;;;;;;23.74;54.56;100144.38;4128411;28;20061;-68
2022/06/20 09:15:28;;;;;;;14.48;4.00;;;;;;;23.56;53.85;100173.47;4094429;28;20074;-68
2022/06/20 09:17:39;;;;;;;13.55;4.40;;;;;;;23.60;54.03;100183.03;4127042;28;20044;-68
2022/06/20 09:20:01;;;;;;;10.50;4.03;;;;;;;23.60;53.50;100195.44;4133731;28;20045;-69
2022/06/20 09:22:16;;;;;;;9.35;4.45;;;;;;;23.80;53.49;100214.00;4133538;28;20438;-68
2022/06/20 09:24:31;;;;;;;12.68;4.55;;;;;;;23.71;53.31;100227.66;4134008;28;20042;-68
2022/06/20 09:26:40;;;;;;;14.30;5.47;;;;;;;23.79;53.48;100232.66;4133976;28;20100;-68
2022/06/20 09:29:19;;;;;;;12.95;5.38;;;;;;;23.92;52.33;100241.81;4132930;28;20121;-67
2022/06/20 09:31:56;;;;;;;12.50;5.43;;;;;;;23.74;52.12;100256.72;4132661;28;20112;-67
2022/06/20 09:34:29;;;;;;;14.85;6.25;;;;;;;23.73;52.39;100254.13;4117714;28;20047;-67
2022/06/20 09:37:04;;;;;;;12.35;4.95;;;;;;;23.60;53.07;100249.38;4117851;28;20074;-67
2022/06/20 09:39:30;;;;;;;9.80;4.22;;;;;;;23.62;53.39;100249.31;4150991;28;20049;-68
2022/06/20 09:41:37;;;;;;;9.27;2.97;;;;;;;23.82;53.21;100248.44;4138378;28;20045;-68
2022/06/20 09:43:47;;;;;;;15.75;4.57;;;;;;;24.18;52.82;100255.69;4121195;28;20526;-67
2022/06/20 09:45:57;;;;;;;11.77;4.55;;;;;;;24.63;52.59;100241.22;4117413;28;20042;-68
2022/06/20 09:48:06;;;;;;;10.07;3.92;;;;;;;24.49;52.50;100248.97;4132346;28;20125;-68
2022/06/20 09:50:22;;;;;;;19.65;6.25;;;;;;;24.60;52.18;100246.69;4131428;28;20049;-67
2022/06/20 09:52:37;;;;;;;14.85;5.40;;;;;;;24.45;53.13;100253.56;4126438;28;20430;-68
2022/06/20 09:54:54;;;;;;;10.93;4.18;;;;;;;24.00;53.97;100254.75;4132204;28;20097;-67
2022/06/20 09:57:04;;;;;;;8.60;3.83;;;;;;;23.68;53.84;100257.88;4133756;28;20062;-68
2022/06/20 09:59:12;;;;;;;6.47;2.70;;;;;;;23.49;54.02;100267.53;4133405;28;20453;-67
2022/06/20 10:01:23;;;;;;;11.43;3.33;;;;;;;23.35;54.64;100260.19;4132334;28;20503;-68
2022/06/20 10:03:37;;;;;;;12.30;3.22;;;;;;;23.46;55.06;100267.69;4137536;28;20046;-66
2022/06/20 10:05:53;;;;;;;11.52;3.72;;;;;;;23.66;54.54;100269.47;4133247;28;20412;-67